Super Jet — IINO — position and weather

sailwx.info

Track history (hours):
 
Tides and Currents Weather Stations Pressure Air Temp Water Temp Dewpoint Dewpoint Depression Visibility Wind Speed Wind Dir Waves Ship Positions

Super Jet

Last reported at 2016-Apr-28 22:17 UTC. Time now 2016-Apr-28 23:52 UTC.
Position N 40°38' E 014°23'.

Length 30 m; draft 1.4 m.

Type: High speed craft. MMSI: 247540000.

Date/timePositionNaut miles runAvg speedWind from/ knotsBaromVisibWave heightAir tempDewpointWater temp
2016-Apr-28 22:17N 40°38' E 014°23'0 0.0
2016-Apr-28 21:33N 40°38' E 014°23'0 0.0
2016-Apr-28 20:33N 40°38' E 014°23'0 0.0
2016-Apr-28 17:19N 40°38' E 014°23'1316.7
2016-Apr-28 16:34N 40°50' E 014°17'7 7.1
2016-Apr-28 15:34N 40°43' E 014°17'9 9.4
2016-Apr-28 14:33N 40°33' E 014°14'17 5.4
2016-Apr-28 11:25N 40°50' E 014°16'1719.3
2016-Apr-28 10:33N 40°33' E 014°14'1 0.8
2016-Apr-28 09:33N 40°34' E 014°13'1 0.8
2016-Apr-28 08:34N 40°33' E 014°14'9 3.1
2016-Apr-28 05:31N 40°41' E 014°22'3 3.2
2016-Apr-28 04:31N 40°38' E 014°23'0 0.0
2016-Apr-28 03:31N 40°38' E 014°23'0 0.0
2016-Apr-28 02:31N 40°38' E 014°23'0 0.0
2016-Apr-28 01:31N 40°38' E 014°23'0 0.0
2016-Apr-28 00:31N 40°38' E 014°23'0 0.0
2016-Apr-27 23:31N 40°38' E 014°23'0 0.0
2016-Apr-27 22:31N 40°38' E 014°23'0 0.0
2016-Apr-27 21:19N 40°38' E 014°23'0 0.0
2016-Apr-27 20:31N 40°38' E 014°23'0 0.0
2016-Apr-27 18:31N 40°38' E 014°23'0 0.0
2016-Apr-27 17:31N 40°38' E 014°23'1313.2
2016-Apr-27 16:33N 40°50' E 014°17'7 6.7
2016-Apr-27 15:33N 40°43' E 014°17'10 9.8
2016-Apr-27 14:33N 40°33' E 014°15'17 8.3
2016-Apr-27 12:31N 40°50' E 014°15'1717.4
2016-Apr-27 11:33N 40°33' E 014°14'0 0.0
2016-Apr-27 10:33N 40°33' E 014°14'1711.4
2016-Apr-27 09:04N 40°50' E 014°15'713.2
2016-Apr-27 08:33N 40°44' E 014°17'1010.0
2016-Apr-27 07:31N 40°33' E 014°14'9 4.6
2016-Apr-27 05:31N 40°41' E 014°22'3 2.8
2016-Apr-27 04:27N 40°38' E 014°23'0 0.0
2016-Apr-27 03:34N 40°38' E 014°23'0 0.0
2016-Apr-27 02:34N 40°38' E 014°23'0 0.0
2016-Apr-27 01:34N 40°38' E 014°23'0 0.0
2016-Apr-27 00:22N 40°38' E 014°23'0 0.0
2016-Apr-26 23:33N 40°38' E 014°23'0 0.0
2016-Apr-26 22:33N 40°38' E 014°23'0 0.0
2016-Apr-26 21:33N 40°38' E 014°23'0 0.0
2016-Apr-26 20:34N 40°38' E 014°23'0 0.0
2016-Apr-26 19:33N 40°38' E 014°23'0 0.0
2016-Apr-26 18:34N 40°38' E 014°23'0 0.0
2016-Apr-26 17:07N 40°38' E 014°23'1322.4
2016-Apr-26 16:32N 40°50' E 014°16'0 0.0
2016-Apr-26 06:29N 40°51' E 014°16'1010.8
2016-Apr-26 05:34N 40°41' E 014°21'4 3.5
2016-Apr-26 04:33N 40°38' E 014°23'0 0.0
2016-Apr-26 03:33N 40°38' E 014°23'0 0.0
2016-Apr-26 02:33N 40°38' E 014°23'0 0.0
2016-Apr-26 01:33N 40°38' E 014°23'0 0.0
2016-Apr-26 00:33N 40°38' E 014°23'0 0.0
2016-Apr-25 23:33N 40°38' E 014°23'0 0.0
2016-Apr-25 22:33N 40°38' E 014°23'0 0.0
2016-Apr-25 21:33N 40°38' E 014°23'0 0.0
2016-Apr-25 20:32N 40°38' E 014°23'0 0.0
2016-Apr-25 19:33N 40°38' E 014°23'0 0.0
2016-Apr-25 18:33N 40°38' E 014°23'0 0.0
2016-Apr-25 17:32N 40°38' E 014°23'0 0.0
2016-Apr-25 16:33N 40°38' E 014°23'0 0.0
2016-Apr-25 15:33N 40°38' E 014°23'0 0.0
2016-Apr-25 14:33N 40°38' E 014°23'0 0.0
2016-Apr-25 13:33N 40°38' E 014°23'0 0.0
2016-Apr-25 12:33N 40°38' E 014°23'0 0.0
2016-Apr-25 11:33N 40°38' E 014°23'0 0.0
2016-Apr-25 10:32N 40°38' E 014°23'0 0.0
2016-Apr-25 09:33N 40°38' E 014°23'0 0.2
2016-Apr-25 08:33N 40°38' E 014°23'1413.5
2016-Apr-25 07:33N 40°50' E 014°15'0 0.0
2016-Apr-25 06:33N 40°50' E 014°15'1211.7
2016-Apr-25 05:33N 40°40' E 014°24'3 2.7
2016-Apr-25 04:33N 40°38' E 014°23'0 0.0
2016-Apr-25 03:33N 40°38' E 014°23'0 0.0
2016-Apr-25 02:33N 40°38' E 014°23'0 0.0
2016-Apr-25 01:33N 40°38' E 014°23'0 0.0
2016-Apr-25 00:33N 40°38' E 014°23'0 0.0
2016-Apr-24 23:33N 40°38' E 014°23'0 0.0
2016-Apr-24 22:33N 40°38' E 014°23'0 0.0
2016-Apr-24 21:33N 40°38' E 014°23'0 0.0
2016-Apr-24 20:33N 40°38' E 014°23'0 0.0
2016-Apr-24 19:33N 40°38' E 014°23'0 0.0
2016-Apr-24 09:13N 40°38' E 014°23'0 0.0
2016-Apr-24 08:33N 40°38' E 014°23'0 0.0
2016-Apr-24 07:32N 40°38' E 014°23'0 0.0
2016-Apr-24 06:33N 40°38' E 014°23'4 0.2
2016-Apr-23 05:34N 40°42' E 014°22'4 4.1
2016-Apr-23 04:33N 40°38' E 014°23'0 0.0
2016-Apr-23 03:33N 40°38' E 014°23'0 0.0
2016-Apr-23 02:33N 40°38' E 014°23'0 0.0
2016-Apr-23 01:33N 40°38' E 014°23'0 0.0
2016-Apr-23 00:33N 40°38' E 014°23'0 0.0
2016-Apr-22 23:33N 40°38' E 014°23'0 0.0
2016-Apr-22 22:32N 40°38' E 014°23'0 0.0
2016-Apr-22 21:33N 40°38' E 014°23'0 0.0
2016-Apr-22 20:33N 40°38' E 014°23'0 0.0
2016-Apr-22 19:31N 40°38' E 014°23'0 0.0
2016-Apr-22 18:33N 40°38' E 014°23'0 0.0
2016-Apr-22 17:33N 40°38' E 014°23'1312.8
2016-Apr-22 16:34N 40°50' E 014°17'6 6.2
2016-Apr-22 15:34N 40°44' E 014°17'1010.2
2016-Apr-22 14:33N 40°33' E 014°14'1716.9
2016-Apr-22 13:33N 40°50' E 014°15'0 0.0
2016-Apr-22 12:31N 40°50' E 014°15'0 0.2
2016-Apr-22 11:25N 40°50' E 014°16'1719.6
2016-Apr-22 10:33N 40°33' E 014°14'0 0.0
2016-Apr-22 09:33N 40°33' E 014°14'1713.7
2016-Apr-22 08:20N 40°50' E 014°16'1721.3
2016-Apr-22 07:33N 40°33' E 014°14'10 5.0
2016-Apr-22 05:33N 40°42' E 014°21'4 4.2
2016-Apr-22 04:33N 40°38' E 014°23'0 0.0
2016-Apr-22 03:32N 40°38' E 014°23'0 0.0
2016-Apr-22 02:33N 40°38' E 014°23'0 0.0
2016-Apr-22 01:33N 40°38' E 014°23'0 0.0
2016-Apr-22 00:33N 40°38' E 014°23'0 0.0
2016-Apr-21 23:33N 40°38' E 014°23'0 0.0
2016-Apr-21 22:33N 40°38' E 014°23'0 0.0
2016-Apr-21 21:33N 40°38' E 014°23'0 0.0
2016-Apr-21 20:31N 40°38' E 014°23'0 0.0
2016-Apr-21 19:33N 40°38' E 014°23'0 0.0
2016-Apr-21 18:04N 40°38' E 014°23'0 0.0
2016-Apr-21 17:33N 40°38' E 014°23'1312.8
2016-Apr-21 16:33N 40°50' E 014°17'6 5.8
2016-Apr-21 15:33N 40°44' E 014°17'1110.6
2016-Apr-21 14:33N 40°33' E 014°14'1714.6
2016-Apr-21 13:24N 40°50' E 014°15'0 0.0
2016-Apr-21 12:17N 40°50' E 014°15'0 0.0
2016-Apr-21 11:33N 40°50' E 014°15'1716.9
2016-Apr-21 10:33N 40°33' E 014°14'0 0.0
2016-Apr-21 09:33N 40°33' E 014°14'1713.7
2016-Apr-21 08:20N 40°50' E 014°16'1721.8
2016-Apr-21 07:33N 40°33' E 014°14'9 4.7
2016-Apr-21 05:33N 40°41' E 014°21'4 3.5
2016-Apr-21 04:33N 40°38' E 014°23'0 0.0
2016-Apr-21 03:33N 40°38' E 014°23'0 0.0
2016-Apr-21 02:33N 40°38' E 014°23'0 0.0
2016-Apr-21 01:32N 40°38' E 014°23'0 0.0
2016-Apr-21 00:31N 40°38' E 014°23'0 0.0
2016-Apr-20 23:33N 40°38' E 014°23'0 0.0
2016-Apr-20 22:33N 40°38' E 014°23'0 0.0
2016-Apr-20 21:33N 40°38' E 014°23'0 0.0
2016-Apr-20 20:30N 40°38' E 014°23'0 0.0
2016-Apr-20 19:33N 40°38' E 014°23'0 0.0
2016-Apr-20 18:33N 40°38' E 014°23'0 0.0
2016-Apr-20 17:33N 40°38' E 014°23'1212.3
2016-Apr-20 16:33N 40°49' E 014°17'5 5.4
2016-Apr-20 15:33N 40°44' E 014°17'1110.6
2016-Apr-20 14:33N 40°33' E 014°14'17 5.4
2016-Apr-20 11:26N 40°50' E 014°16'1719.3
2016-Apr-20 10:34N 40°33' E 014°14'1 0.6
2016-Apr-20 09:33N 40°34' E 014°15'1716.5
2016-Apr-20 08:33N 40°50' E 014°16'1716.7
2016-Apr-20 07:33N 40°33' E 014°14'1713.1
2016-Apr-20 06:16N 40°50' E 014°15'1114.9
2016-Apr-20 05:33N 40°41' E 014°22'3 3.4
2016-Apr-20 04:33N 40°38' E 014°23'0 0.0
2016-Apr-20 03:33N 40°38' E 014°23'0 0.0
2016-Apr-20 02:33N 40°38' E 014°23'0 0.0
2016-Apr-20 01:33N 40°38' E 014°23'0 0.0
2016-Apr-20 00:33N 40°38' E 014°23'0 0.0
2016-Apr-19 23:33N 40°38' E 014°23'0 0.0
2016-Apr-19 22:32N 40°38' E 014°23'0 0.0
2016-Apr-19 21:33N 40°38' E 014°23'0 0.0
2016-Apr-19 20:33N 40°38' E 014°23'0 0.0
2016-Apr-19 19:33N 40°38' E 014°23'0 0.0
2016-Apr-19 18:33N 40°38' E 014°23'0 0.0
2016-Apr-19 17:31N 40°38' E 014°23'1313.6
2016-Apr-19 16:32N 40°50' E 014°16'3 3.1
2016-Apr-19 15:33N 40°48' E 014°18'1414.5
2016-Apr-19 14:33N 40°33' E 014°14'0 0.0
2016-Apr-19 13:33N 40°33' E 014°14'0 0.0
2016-Apr-19 12:33N 40°33' E 014°14'0 0.4
2016-Apr-19 11:33N 40°34' E 014°15'1714.9
2016-Apr-19 10:27N 40°50' E 014°16'1718.6
2016-Apr-19 09:32N 40°33' E 014°14'1714.7
2016-Apr-19 08:24N 40°50' E 014°16'1719.9
2016-Apr-19 07:33N 40°33' E 014°14'10 4.8
2016-Apr-19 05:33N 40°41' E 014°22'3 3.2
2016-Apr-19 04:31N 40°38' E 014°23'0 0.0
2016-Apr-19 03:33N 40°38' E 014°23'0 0.0
2016-Apr-19 02:33N 40°38' E 014°23'0 0.0
2016-Apr-19 01:33N 40°38' E 014°23'0 0.0
2016-Apr-19 00:33N 40°38' E 014°23'0 0.0
2016-Apr-18 23:33N 40°38' E 014°23'0 0.0
2016-Apr-18 22:33N 40°38' E 014°23'  
Track history (hours):
 
Tides and Currents Weather Stations Pressure Air Temp Water Temp Dewpoint Dewpoint Depression Visibility Wind Speed Wind Dir Waves Ship Positions

Super Jet

Last reported at 2016-Apr-28 22:17 UTC. Time now 2016-Apr-28 23:52 UTC.
Position N 40°38' E 014°23'.

Length 30 m; draft 1.4 m.

Type: High speed craft. MMSI: 247540000.

Date/timePositionNaut miles runAvg speedWind from/ knotsBaromVisibWave heightAir tempDewpointWater temp
2016-Apr-28 22:17N 40°38' E 014°23'0 0.0
2016-Apr-28 21:33N 40°38' E 014°23'0 0.0
2016-Apr-28 20:33N 40°38' E 014°23'0 0.0
2016-Apr-28 17:19N 40°38' E 014°23'1316.7
2016-Apr-28 16:34N 40°50' E 014°17'7 7.1
2016-Apr-28 15:34N 40°43' E 014°17'9 9.4
2016-Apr-28 14:33N 40°33' E 014°14'17 5.4
2016-Apr-28 11:25N 40°50' E 014°16'1719.3
2016-Apr-28 10:33N 40°33' E 014°14'1 0.8
2016-Apr-28 09:33N 40°34' E 014°13'1 0.8
2016-Apr-28 08:34N 40°33' E 014°14'9 3.1
2016-Apr-28 05:31N 40°41' E 014°22'3 3.2
2016-Apr-28 04:31N 40°38' E 014°23'0 0.0
2016-Apr-28 03:31N 40°38' E 014°23'0 0.0
2016-Apr-28 02:31N 40°38' E 014°23'0 0.0
2016-Apr-28 01:31N 40°38' E 014°23'0 0.0
2016-Apr-28 00:31N 40°38' E 014°23'0 0.0
2016-Apr-27 23:31N 40°38' E 014°23'0 0.0
2016-Apr-27 22:31N 40°38' E 014°23'0 0.0
2016-Apr-27 21:19N 40°38' E 014°23'0 0.0
2016-Apr-27 20:31N 40°38' E 014°23'0 0.0
2016-Apr-27 18:31N 40°38' E 014°23'0 0.0
2016-Apr-27 17:31N 40°38' E 014°23'1313.2
2016-Apr-27 16:33N 40°50' E 014°17'7 6.7
2016-Apr-27 15:33N 40°43' E 014°17'10 9.8
2016-Apr-27 14:33N 40°33' E 014°15'17 8.3
2016-Apr-27 12:31N 40°50' E 014°15'1717.4
2016-Apr-27 11:33N 40°33' E 014°14'0 0.0
2016-Apr-27 10:33N 40°33' E 014°14'1711.4
2016-Apr-27 09:04N 40°50' E 014°15'713.2
2016-Apr-27 08:33N 40°44' E 014°17'1010.0
2016-Apr-27 07:31N 40°33' E 014°14'9 4.6
2016-Apr-27 05:31N 40°41' E 014°22'3 2.8
2016-Apr-27 04:27N 40°38' E 014°23'0 0.0
2016-Apr-27 03:34N 40°38' E 014°23'0 0.0
2016-Apr-27 02:34N 40°38' E 014°23'0 0.0
2016-Apr-27 01:34N 40°38' E 014°23'0 0.0
2016-Apr-27 00:22N 40°38' E 014°23'0 0.0
2016-Apr-26 23:33N 40°38' E 014°23'0 0.0
2016-Apr-26 22:33N 40°38' E 014°23'0 0.0
2016-Apr-26 21:33N 40°38' E 014°23'0 0.0
2016-Apr-26 20:34N 40°38' E 014°23'0 0.0
2016-Apr-26 19:33N 40°38' E 014°23'0 0.0
2016-Apr-26 18:34N 40°38' E 014°23'0 0.0
2016-Apr-26 17:07N 40°38' E 014°23'1322.4
2016-Apr-26 16:32N 40°50' E 014°16'0 0.0
2016-Apr-26 06:29N 40°51' E 014°16'1010.8
2016-Apr-26 05:34N 40°41' E 014°21'4 3.5
2016-Apr-26 04:33N 40°38' E 014°23'0 0.0
2016-Apr-26 03:33N 40°38' E 014°23'0 0.0
2016-Apr-26 02:33N 40°38' E 014°23'0 0.0
2016-Apr-26 01:33N 40°38' E 014°23'0 0.0
2016-Apr-26 00:33N 40°38' E 014°23'0 0.0
2016-Apr-25 23:33N 40°38' E 014°23'0 0.0
2016-Apr-25 22:33N 40°38' E 014°23'0 0.0
2016-Apr-25 21:33N 40°38' E 014°23'0 0.0
2016-Apr-25 20:32N 40°38' E 014°23'0 0.0
2016-Apr-25 19:33N 40°38' E 014°23'0 0.0
2016-Apr-25 18:33N 40°38' E 014°23'0 0.0
2016-Apr-25 17:32N 40°38' E 014°23'0 0.0
2016-Apr-25 16:33N 40°38' E 014°23'0 0.0
2016-Apr-25 15:33N 40°38' E 014°23'0 0.0
2016-Apr-25 14:33N 40°38' E 014°23'0 0.0
2016-Apr-25 13:33N 40°38' E 014°23'0 0.0
2016-Apr-25 12:33N 40°38' E 014°23'0 0.0
2016-Apr-25 11:33N 40°38' E 014°23'0 0.0
2016-Apr-25 10:32N 40°38' E 014°23'0 0.0
2016-Apr-25 09:33N 40°38' E 014°23'0 0.2
2016-Apr-25 08:33N 40°38' E 014°23'1413.5
2016-Apr-25 07:33N 40°50' E 014°15'0 0.0
2016-Apr-25 06:33N 40°50' E 014°15'1211.7
2016-Apr-25 05:33N 40°40' E 014°24'3 2.7
2016-Apr-25 04:33N 40°38' E 014°23'0 0.0
2016-Apr-25 03:33N 40°38' E 014°23'0 0.0
2016-Apr-25 02:33N 40°38' E 014°23'0 0.0
2016-Apr-25 01:33N 40°38' E 014°23'0 0.0
2016-Apr-25 00:33N 40°38' E 014°23'0 0.0
2016-Apr-24 23:33N 40°38' E 014°23'0 0.0
2016-Apr-24 22:33N 40°38' E 014°23'0 0.0
2016-Apr-24 21:33N 40°38' E 014°23'0 0.0
2016-Apr-24 20:33N 40°38' E 014°23'0 0.0
2016-Apr-24 19:33N 40°38' E 014°23'0 0.0
2016-Apr-24 09:13N 40°38' E 014°23'0 0.0
2016-Apr-24 08:33N 40°38' E 014°23'0 0.0
2016-Apr-24 07:32N 40°38' E 014°23'0 0.0
2016-Apr-24 06:33N 40°38' E 014°23'4 0.2
2016-Apr-23 05:34N 40°42' E 014°22'4 4.1
2016-Apr-23 04:33N 40°38' E 014°23'0 0.0
2016-Apr-23 03:33N 40°38' E 014°23'0 0.0
2016-Apr-23 02:33N 40°38' E 014°23'0 0.0
2016-Apr-23 01:33N 40°38' E 014°23'0 0.0
2016-Apr-23 00:33N 40°38' E 014°23'0 0.0
2016-Apr-22 23:33N 40°38' E 014°23'0 0.0
2016-Apr-22 22:32N 40°38' E 014°23'0 0.0
2016-Apr-22 21:33N 40°38' E 014°23'0 0.0
2016-Apr-22 20:33N 40°38' E 014°23'0 0.0
2016-Apr-22 19:31N 40°38' E 014°23'0 0.0
2016-Apr-22 18:33N 40°38' E 014°23'0 0.0
2016-Apr-22 17:33N 40°38' E 014°23'1312.8
2016-Apr-22 16:34N 40°50' E 014°17'6 6.2
2016-Apr-22 15:34N 40°44' E 014°17'1010.2
2016-Apr-22 14:33N 40°33' E 014°14'1716.9
2016-Apr-22 13:33N 40°50' E 014°15'0 0.0
2016-Apr-22 12:31N 40°50' E 014°15'0 0.2
2016-Apr-22 11:25N 40°50' E 014°16'1719.6
2016-Apr-22 10:33N 40°33' E 014°14'0 0.0
2016-Apr-22 09:33N 40°33' E 014°14'1713.7
2016-Apr-22 08:20N 40°50' E 014°16'1721.3
2016-Apr-22 07:33N 40°33' E 014°14'10 5.0
2016-Apr-22 05:33N 40°42' E 014°21'4 4.2
2016-Apr-22 04:33N 40°38' E 014°23'0 0.0
2016-Apr-22 03:32N 40°38' E 014°23'0 0.0
2016-Apr-22 02:33N 40°38' E 014°23'0 0.0
2016-Apr-22 01:33N 40°38' E 014°23'0 0.0
2016-Apr-22 00:33N 40°38' E 014°23'0 0.0
2016-Apr-21 23:33N 40°38' E 014°23'0 0.0
2016-Apr-21 22:33N 40°38' E 014°23'0 0.0
2016-Apr-21 21:33N 40°38' E 014°23'0 0.0
2016-Apr-21 20:31N 40°38' E 014°23'0 0.0
2016-Apr-21 19:33N 40°38' E 014°23'0 0.0
2016-Apr-21 18:04N 40°38' E 014°23'0 0.0
2016-Apr-21 17:33N 40°38' E 014°23'1312.8
2016-Apr-21 16:33N 40°50' E 014°17'6 5.8
2016-Apr-21 15:33N 40°44' E 014°17'1110.6
2016-Apr-21 14:33N 40°33' E 014°14'1714.6
2016-Apr-21 13:24N 40°50' E 014°15'0 0.0
2016-Apr-21 12:17N 40°50' E 014°15'0 0.0
2016-Apr-21 11:33N 40°50' E 014°15'1716.9
2016-Apr-21 10:33N 40°33' E 014°14'0 0.0
2016-Apr-21 09:33N 40°33' E 014°14'1713.7
2016-Apr-21 08:20N 40°50' E 014°16'1721.8
2016-Apr-21 07:33N 40°33' E 014°14'9 4.7
2016-Apr-21 05:33N 40°41' E 014°21'4 3.5
2016-Apr-21 04:33N 40°38' E 014°23'0 0.0
2016-Apr-21 03:33N 40°38' E 014°23'0 0.0
2016-Apr-21 02:33N 40°38' E 014°23'0 0.0
2016-Apr-21 01:32N 40°38' E 014°23'0 0.0
2016-Apr-21 00:31N 40°38' E 014°23'0 0.0
2016-Apr-20 23:33N 40°38' E 014°23'0 0.0
2016-Apr-20 22:33N 40°38' E 014°23'0 0.0
2016-Apr-20 21:33N 40°38' E 014°23'0 0.0
2016-Apr-20 20:30N 40°38' E 014°23'0 0.0
2016-Apr-20 19:33N 40°38' E 014°23'0 0.0
2016-Apr-20 18:33N 40°38' E 014°23'0 0.0
2016-Apr-20 17:33N 40°38' E 014°23'1212.3
2016-Apr-20 16:33N 40°49' E 014°17'5 5.4
2016-Apr-20 15:33N 40°44' E 014°17'1110.6
2016-Apr-20 14:33N 40°33' E 014°14'17 5.4
2016-Apr-20 11:26N 40°50' E 014°16'1719.3
2016-Apr-20 10:34N 40°33' E 014°14'1 0.6
2016-Apr-20 09:33N 40°34' E 014°15'1716.5
2016-Apr-20 08:33N 40°50' E 014°16'1716.7
2016-Apr-20 07:33N 40°33' E 014°14'1713.1
2016-Apr-20 06:16N 40°50' E 014°15'1114.9
2016-Apr-20 05:33N 40°41' E 014°22'3 3.4
2016-Apr-20 04:33N 40°38' E 014°23'0 0.0
2016-Apr-20 03:33N 40°38' E 014°23'0 0.0
2016-Apr-20 02:33N 40°38' E 014°23'0 0.0
2016-Apr-20 01:33N 40°38' E 014°23'0 0.0
2016-Apr-20 00:33N 40°38' E 014°23'0 0.0
2016-Apr-19 23:33N 40°38' E 014°23'0 0.0
2016-Apr-19 22:32N 40°38' E 014°23'0 0.0
2016-Apr-19 21:33N 40°38' E 014°23'0 0.0
2016-Apr-19 20:33N 40°38' E 014°23'0 0.0
2016-Apr-19 19:33N 40°38' E 014°23'0 0.0
2016-Apr-19 18:33N 40°38' E 014°23'0 0.0
2016-Apr-19 17:31N 40°38' E 014°23'1313.6
2016-Apr-19 16:32N 40°50' E 014°16'3 3.1
2016-Apr-19 15:33N 40°48' E 014°18'1414.5
2016-Apr-19 14:33N 40°33' E 014°14'0 0.0
2016-Apr-19 13:33N 40°33' E 014°14'0 0.0
2016-Apr-19 12:33N 40°33' E 014°14'0 0.4
2016-Apr-19 11:33N 40°34' E 014°15'1714.9
2016-Apr-19 10:27N 40°50' E 014°16'1718.6
2016-Apr-19 09:32N 40°33' E 014°14'1714.7
2016-Apr-19 08:24N 40°50' E 014°16'1719.9
2016-Apr-19 07:33N 40°33' E 014°14'10 4.8
2016-Apr-19 05:33N 40°41' E 014°22'3 3.2
2016-Apr-19 04:31N 40°38' E 014°23'0 0.0
2016-Apr-19 03:33N 40°38' E 014°23'0 0.0
2016-Apr-19 02:33N 40°38' E 014°23'0 0.0
2016-Apr-19 01:33N 40°38' E 014°23'0 0.0
2016-Apr-19 00:33N 40°38' E 014°23'0 0.0
2016-Apr-18 23:33N 40°38' E 014°23'0 0.0
2016-Apr-18 22:33N 40°38' E 014°23'  

Dump ship's entire track history